Time;durP1;ratioP1;P1;durP2;ratioP2;P2;SDS_P1;SDS_P2;PMS_P1;PMS_P2;Temp;Humidity;BMP_temperature;BMP_pressure;BME280_temperature;BME280_humidity;BME280_pressure;Samples;Min_cycle;Max_cycle;Signal;HPM_P1;HPM_P2
2020/12/16 00:00:11;;;;;;;22.17;15.70;;;10.80;1.00;;;;;;4975084;28;20537;-60
2020/12/16 00:02:40;;;;;;;20.75;13.02;;;10.80;1.00;;;;;;4974251;28;20547;-60
2020/12/16 00:05:08;;;;;;;19.40;13.70;;;10.80;1.00;;;;;;4974904;28;20195;-60
2020/12/16 00:07:34;;;;;;;20.60;12.52;;;10.80;1.00;;;;;;4975129;28;20188;-60
2020/12/16 00:10:00;;;;;;;19.52;12.35;;;10.80;1.00;;;;;;4975114;28;20267;-60
2020/12/16 00:12:25;;;;;;;18.73;12.20;;;10.90;1.00;;;;;;4975174;28;20534;-60
2020/12/16 00:14:51;;;;;;;20.07;12.80;;;11.10;1.00;;;;;;4974820;28;20661;-60
2020/12/16 00:17:17;;;;;;;18.35;12.45;;;11.10;1.00;;;;;;4975087;28;20621;-60
2020/12/16 00:19:43;;;;;;;19.43;13.47;;;11.20;1.00;;;;;;4975055;28;20202;-60
2020/12/16 00:22:09;;;;;;;22.60;14.57;;;11.30;1.00;;;;;;4974844;28;20660;-61
2020/12/16 00:24:34;;;;;;;20.60;13.85;;;11.30;1.00;;;;;;4974713;28;20274;-61
2020/12/16 00:27:00;;;;;;;20.80;14.43;;;11.20;1.00;;;;;;4974876;28;20634;-61
2020/12/16 00:29:25;;;;;;;19.70;13.80;;;10.90;1.00;;;;;;4974919;28;20195;-61
2020/12/16 00:31:51;;;;;;;23.47;13.90;;;11.10;1.00;;;;;;4974832;28;20482;-61
2020/12/16 00:34:17;;;;;;;22.07;12.90;;;11.30;1.00;;;;;;4973623;28;20191;-60
2020/12/16 00:36:43;;;;;;;23.05;14.77;;;11.30;1.00;;;;;;4974776;28;20193;-60
2020/12/16 00:39:10;;;;;;;20.73;13.77;;;11.20;1.00;;;;;;4974898;28;20180;-60
2020/12/16 00:41:37;;;;;;;27.73;15.65;;;11.30;1.00;;;;;;4974620;28;20231;-60
2020/12/16 00:44:04;;;;;;;24.27;14.65;;;11.10;1.00;;;;;;4974470;28;20669;-60
2020/12/16 00:46:30;;;;;;;29.58;17.52;;;11.10;1.00;;;;;;4974755;28;20175;-61
2020/12/16 00:48:55;;;;;;;23.23;14.77;;;11.20;1.00;;;;;;4974747;28;20517;-60
2020/12/16 00:51:21;;;;;;;23.10;14.80;;;11.30;1.00;;;;;;4974699;28;20533;-60
2020/12/16 00:53:46;;;;;;;21.50;13.37;;;11.30;1.00;;;;;;4974864;28;20665;-60
2020/12/16 00:56:12;;;;;;;23.93;14.60;;;11.40;1.00;;;;;;4974495;28;20186;-60
2020/12/16 00:58:38;;;;;;;23.40;15.10;;;11.30;1.00;;;;;;4974633;28;20283;-60
2020/12/16 01:01:05;;;;;;;27.27;15.93;;;11.20;1.00;;;;;;4978606;28;20230;-60
2020/12/16 01:03:31;;;;;;;25.02;15.68;;;11.00;1.00;;;;;;4978432;28;20180;-60
2020/12/16 01:05:57;;;;;;;26.90;16.88;;;10.90;1.00;;;;;;4978620;28;20179;-60
2020/12/16 01:08:22;;;;;;;31.03;18.20;;;10.80;1.00;;;;;;4978681;28;20633;-60
2020/12/16 01:10:48;;;;;;;25.33;17.23;;;10.90;1.00;;;;;;4978691;28;20186;-60
2020/12/16 01:13:14;;;;;;;32.97;18.57;;;10.90;1.00;;;;;;4978595;28;20188;-60
2020/12/16 01:15:39;;;;;;;33.47;20.27;;;11.10;1.00;;;;;;4978504;28;20188;-60
2020/12/16 01:18:05;;;;;;;86.60;53.50;;;11.20;1.00;;;;;;4978672;28;20191;-60
2020/12/16 01:20:30;;;;;;;48.53;27.93;;;11.30;1.00;;;;;;4978599;28;20270;-61
2020/12/16 01:22:56;;;;;;;28.67;18.00;;;11.50;1.00;;;;;;4978359;28;20190;-62
2020/12/16 01:25:22;;;;;;;32.60;19.40;;;11.40;1.00;;;;;;4978117;28;20606;-60
2020/12/16 01:27:55;;;;;;;29.75;17.83;;;11.20;1.00;;;;;;4978178;28;20176;-61
2020/12/16 01:30:21;;;;;;;30.95;17.92;;;11.30;1.00;;;;;;4978281;28;20180;-60
2020/12/16 01:32:50;;;;;;;28.37;17.57;;;11.50;1.00;;;;;;4979939;28;20177;-61
2020/12/16 01:35:16;;;;;;;29.85;18.30;;;11.50;1.00;;;;;;4981950;28;20454;-59
2020/12/16 01:37:41;;;;;;;25.50;16.97;;;11.40;1.00;;;;;;4986452;28;20499;-60
2020/12/16 01:40:08;;;;;;;28.77;17.20;;;11.60;1.00;;;;;;4978257;28;20254;-65
2020/12/16 01:42:35;;;;;;;31.58;18.75;;;11.60;1.00;;;;;;4978315;28;20235;-65
2020/12/16 01:45:09;;;;;;;30.60;18.42;;;11.50;1.00;;;;;;4978097;28;20172;-60
2020/12/16 01:47:34;;;;;;;32.63;19.40;;;11.30;1.00;;;;;;4977992;28;20490;-60
2020/12/16 01:50:00;;;;;;;29.57;17.30;;;11.30;1.00;;;;;;4979233;28;20191;-60
2020/12/16 01:52:27;;;;;;;29.63;17.23;;;11.20;1.00;;;;;;4978347;28;20184;-60
2020/12/16 01:54:58;;;;;;;34.38;17.58;;;11.10;1.00;;;;;;4978043;28;20235;-60
2020/12/16 01:57:25;;;;;;;26.23;16.35;;;11.10;1.00;;;;;;4979526;28;20183;-60
2020/12/16 01:59:51;;;;;;;30.75;19.20;;;11.10;1.00;;;;;;4979022;28;20228;-61
2020/12/16 02:02:19;;;;;;;31.48;17.90;;;11.30;1.00;;;;;;4977636;28;20215;-61
2020/12/16 02:04:47;;;;;;;29.67;17.15;;;11.50;1.00;;;;;;4977972;28;20202;-61
2020/12/16 02:07:14;;;;;;;30.95;18.17;;;11.30;1.00;;;;;;4977573;28;20590;-62
2020/12/16 02:09:39;;;;;;;29.70;16.23;;;11.50;1.00;;;;;;4976978;28;20210;-61
2020/12/16 02:12:11;;;;;;;32.47;19.47;;;11.50;1.00;;;;;;4977376;28;20193;-63
2020/12/16 02:14:37;;;;;;;28.50;17.13;;;11.70;1.00;;;;;;4977011;28;20352;-64
2020/12/16 02:17:02;;;;;;;29.70;16.23;;;11.50;99.90;;;;;;4977318;28;20267;-66
2020/12/16 02:19:35;;;;;;;31.10;18.17;;;11.10;1.00;;;;;;4977293;28;20626;-63
2020/12/16 02:22:01;;;;;;;28.08;17.08;;;11.10;1.00;;;;;;4977123;28;20282;-64
2020/12/16 02:24:29;;;;;;;26.07;15.63;;;11.20;1.00;;;;;;4976742;28;20523;-65
2020/12/16 02:26:54;;;;;;;26.95;16.20;;;11.00;1.00;;;;;;4977060;28;20621;-65
2020/12/16 02:29:20;;;;;;;27.47;17.90;;;11.10;1.00;;;;;;4977160;28;20219;-65
2020/12/16 02:31:47;;;;;;;27.97;16.63;;;11.10;1.00;;;;;;4977081;28;20224;-65
2020/12/16 02:34:13;;;;;;;30.40;18.20;;;11.10;1.00;;;;;;4976569;28;20442;-65
2020/12/16 02:36:38;;;;;;;30.27;18.73;;;11.30;1.00;;;;;;4975927;28;20184;-65
2020/12/16 02:39:04;;;;;;;26.97;16.53;;;11.40;1.00;;;;;;4975864;28;20238;-65
2020/12/16 02:41:30;;;;;;;30.60;16.67;;;11.50;1.00;;;;;;4976762;28;20219;-65
2020/12/16 02:43:56;;;;;;;32.75;17.10;;;11.50;1.00;;;;;;4976551;28;20179;-65
2020/12/16 02:46:22;;;;;;;27.70;16.57;;;11.60;1.00;;;;;;4976751;28;20172;-65
2020/12/16 02:48:47;;;;;;;31.43;17.17;;;11.60;99.90;;;;;;4976755;28;20554;-65
2020/12/16 02:51:13;;;;;;;33.97;19.70;;;11.50;99.90;;;;;;4976548;28;20260;-65
2020/12/16 02:53:38;;;;;;;28.73;16.37;;;11.60;99.90;;;;;;4975545;28;20184;-65
2020/12/16 02:56:04;;;;;;;30.20;16.80;;;11.60;99.90;;;;;;4976407;28;20186;-65
2020/12/16 02:58:30;;;;;;;29.63;16.30;;;11.60;99.90;;;;;;4976382;28;20208;-65
2020/12/16 03:00:55;;;;;;;29.57;16.73;;;11.60;99.90;;;;;;4976378;28;20287;-65
2020/12/16 03:03:21;;;;;;;30.03;17.20;;;11.60;99.90;;;;;;4976080;28;20514;-65
2020/12/16 03:05:46;;;;;;;31.13;16.73;;;11.60;99.90;;;;;;4976249;28;20184;-65
2020/12/16 03:08:12;;;;;;;28.77;16.87;;;11.60;99.90;;;;;;4976296;28;20168;-65
2020/12/16 03:10:38;;;;;;;28.43;17.60;;;11.70;99.90;;;;;;4975367;28;20580;-65
2020/12/16 03:13:04;;;;;;;30.77;17.20;;;11.60;99.90;;;;;;4976147;28;20180;-65
2020/12/16 03:15:30;;;;;;;29.95;16.88;;;11.70;99.90;;;;;;4976045;28;20196;-65
2020/12/16 03:17:56;;;;;;;33.35;17.38;;;11.60;99.90;;;;;;4976020;28;20180;-65
2020/12/16 03:20:21;;;;;;;30.93;16.17;;;11.70;99.90;;;;;;4975931;28;20176;-65
2020/12/16 03:22:47;;;;;;;31.90;17.40;;;11.60;99.90;;;;;;4975357;28;20177;-65
2020/12/16 03:25:13;;;;;;;31.90;17.47;;;11.60;99.90;;;;;;4975863;28;20188;-65
2020/12/16 03:27:38;;;;;;;31.67;16.70;;;11.50;99.90;;;;;;4976162;28;20184;-65
2020/12/16 03:30:05;;;;;;;31.47;17.47;;;11.60;99.90;;;;;;4976067;28;20640;-65
2020/12/16 03:32:31;;;;;;;31.70;17.70;;;11.60;99.90;;;;;;4975747;28;20440;-65
2020/12/16 03:34:57;;;;;;;28.00;15.77;;;11.60;99.90;;;;;;4975755;28;20619;-59
2020/12/16 03:37:22;;;;;;;27.80;17.40;;;11.40;99.90;;;;;;4975726;28;20826;-59
2020/12/16 03:39:48;;;;;;;33.47;17.80;;;11.40;99.90;;;;;;4975659;28;20500;-59
2020/12/16 03:42:13;;;;;;;29.50;16.03;;;11.50;1.00;;;;;;4975595;28;20220;-59
2020/12/16 03:44:39;;;;;;;26.27;16.43;;;11.60;99.90;;;;;;4975326;28;20177;-59
2020/12/16 03:47:05;;;;;;;36.80;18.00;;;11.50;99.90;;;;;;4975573;28;20514;-59
2020/12/16 03:49:30;;;;;;;26.90;15.60;;;11.30;1.00;;;;;;4975501;28;20316;-59
2020/12/16 03:51:56;;;;;;;33.07;16.13;;;11.20;1.00;;;;;;4975607;28;20199;-59
2020/12/16 03:54:25;;;;;;;35.45;19.30;;;11.20;1.00;;;;;;4975567;28;20616;-59
2020/12/16 03:56:51;;;;;;;34.50;17.30;;;11.00;1.00;;;;;;4974379;28;20362;-59
2020/12/16 03:59:17;;;;;;;32.90;18.03;;;11.00;1.00;;;;;;4975286;28;20195;-59
2020/12/16 04:01:43;;;;;;;34.27;18.90;;;11.10;1.00;;;;;;4975134;28;20466;-59
2020/12/16 04:04:09;;;;;;;38.17;19.40;;;11.20;1.00;;;;;;4975041;28;20203;-59
2020/12/16 04:06:35;;;;;;;33.50;18.02;;;11.40;1.00;;;;;;4975233;28;20451;-60
2020/12/16 04:09:01;;;;;;;31.38;16.98;;;11.70;1.00;;;;;;4975275;28;20266;-63
2020/12/16 04:11:26;;;;;;;32.17;17.47;;;11.60;99.90;;;;;;4975383;28;20219;-60
2020/12/16 04:13:52;;;;;;;35.73;19.20;;;11.60;99.90;;;;;;4975159;28;20190;-60
2020/12/16 04:16:22;;;;;;;36.43;19.30;;;11.50;99.90;;;;;;4975424;28;20184;-60
2020/12/16 04:18:48;;;;;;;31.83;17.92;;;11.40;99.90;;;;;;4975135;28;20172;-64
2020/12/16 04:21:16;;;;;;;33.05;18.60;;;11.50;99.90;;;;;;4975025;28;20211;-64
2020/12/16 04:23:42;;;;;;;33.83;18.08;;;11.30;99.90;;;;;;4974797;28;20630;-64
2020/12/16 04:26:08;;;;;;;34.20;19.20;;;11.20;1.00;;;;;;4975007;28;20246;-63
2020/12/16 04:28:34;;;;;;;32.77;19.47;;;11.20;1.00;;;;;;4974288;28;20427;-59
2020/12/16 04:31:01;;;;;;;38.67;19.23;;;11.30;1.00;;;;;;4975578;28;20431;-59
2020/12/16 04:33:26;;;;;;;34.97;18.00;;;11.50;1.00;;;;;;4974903;28;20188;-59
2020/12/16 04:35:52;;;;;;;33.90;19.20;;;11.40;1.00;;;;;;4975390;28;20203;-59
2020/12/16 04:38:17;;;;;;;37.93;20.13;;;11.10;1.00;;;;;;4975729;28;20180;-59
2020/12/16 04:40:43;;;;;;;37.80;21.90;;;10.70;1.00;;;;;;4974323;28;20204;-59
2020/12/16 04:43:15;;;;;;;37.37;19.10;;;10.50;1.00;;;;;;4979269;28;20238;-59
2020/12/16 04:45:41;;;;;;;39.85;20.70;;;10.40;1.00;;;;;;4981255;28;20432;-59
2020/12/16 04:48:11;;;;;;;35.67;20.20;;;10.40;1.00;;;;;;4980509;28;20211;-62
2020/12/16 04:50:38;;;;;;;36.33;19.38;;;10.60;1.00;;;;;;4978271;28;20180;-64
2020/12/16 04:53:05;;;;;;;40.70;20.95;;;10.60;1.00;;;;;;4974302;28;20582;-63
2020/12/16 04:55:32;;;;;;;37.13;20.23;;;10.90;1.00;;;;;;4975263;28;20278;-63
2020/12/16 04:58:00;;;;;;;39.83;20.20;;;11.00;1.00;;;;;;4975102;28;20180;-63
2020/12/16 05:00:27;;;;;;;39.25;20.15;;;11.10;1.00;;;;;;4975825;28;20188;-63
2020/12/16 05:02:57;;;;;;;42.85;19.40;;;11.30;1.00;;;;;;4974718;28;20184;-60
2020/12/16 05:05:24;;;;;;;38.03;20.30;;;11.30;1.00;;;;;;4974765;28;20670;-65
2020/12/16 05:07:50;;;;;;;41.55;21.35;;;11.30;1.00;;;;;;4973799;28;20176;-63
2020/12/16 05:10:35;;;;;;;41.03;20.58;;;11.30;1.00;;;;;;4974882;28;20180;-64
2020/12/16 05:13:09;;;;;;;43.72;21.42;;;11.30;1.00;;;;;;4974885;28;20512;-63
2020/12/16 05:15:41;;;;;;;37.13;18.95;;;11.30;1.00;;;;;;4974848;28;20182;-64
2020/12/16 05:18:12;;;;;;;39.83;20.80;;;11.10;1.00;;;;;;4973569;28;20190;-65
2020/12/16 05:20:59;;;;;;;38.35;20.63;;;11.00;1.00;;;;;;4974225;28;20219;-62
2020/12/16 05:23:29;;;;;;;41.47;20.85;;;10.90;1.00;;;;;;4974841;28;20199;-63
2020/12/16 05:26:06;;;;;;;35.88;19.83;;;11.00;1.00;;;;;;4975049;28;20429;-60
2020/12/16 05:28:33;;;;;;;42.13;22.33;;;10.80;1.00;;;;;;4974706;28;20703;-63
2020/12/16 05:31:03;;;;;;;39.80;21.83;;;10.70;1.00;;;;;;4973880;28;20278;-61
2020/12/16 05:33:29;;;;;;;37.88;21.40;;;10.70;1.00;;;;;;4974781;28;20187;-63
2020/12/16 05:35:55;;;;;;;37.40;20.17;;;10.70;1.00;;;;;;4974435;28;20180;-60
2020/12/16 05:38:22;;;;;;;42.92;21.27;;;10.70;1.00;;;;;;4974854;28;20223;-60
2020/12/16 05:40:48;;;;;;;42.97;21.45;;;10.80;1.00;;;;;;4974594;28;20641;-61
2020/12/16 05:43:26;;;;;;;40.20;20.50;;;10.80;1.00;;;;;;4973025;28;20195;-62
2020/12/16 05:45:51;;;;;;;39.75;22.00;;;10.80;1.00;;;;;;4976181;28;20430;-61
2020/12/16 05:48:17;;;;;;;38.50;18.80;;;11.00;1.00;;;;;;4977759;28;20629;-61
2020/12/16 05:50:53;;;;;;;38.90;20.60;;;11.00;1.00;;;;;;4976806;28;20212;-61
2020/12/16 05:53:20;;;;;;;40.05;20.75;;;11.00;1.00;;;;;;4977471;28;20176;-61
2020/12/16 05:55:50;;;;;;;38.38;20.85;;;10.90;1.00;;;;;;4977701;28;20636;-65
2020/12/16 05:58:18;;;;;;;41.03;21.50;;;10.90;1.00;;;;;;4977460;28;20202;-64
2020/12/16 06:00:54;;;;;;;41.30;19.80;;;11.00;1.00;;;;;;4976590;28;20211;-61
2020/12/16 06:03:23;;;;;;;38.63;20.27;;;10.80;1.00;;;;;;4977221;28;20685;-65
2020/12/16 06:06:00;;;;;;;39.10;20.85;;;10.80;1.00;;;;;;4977427;28;20184;-65
2020/12/16 06:08:34;;;;;;;40.72;21.95;;;10.70;1.00;;;;;;4977343;28;20672;-65
2020/12/16 06:11:00;;;;;;;35.05;18.80;;;10.70;1.00;;;;;;4977254;28;20195;-61
2020/12/16 06:13:26;;;;;;;37.40;20.08;;;10.80;1.00;;;;;;4976106;28;20530;-61
2020/12/16 06:15:55;;;;;;;34.50;19.77;;;10.70;1.00;;;;;;4977185;28;20179;-61
2020/12/16 06:18:26;;;;;;;38.67;20.75;;;10.80;1.00;;;;;;4977105;28;20184;-61
2020/12/16 06:20:52;;;;;;;35.47;19.90;;;10.70;1.00;;;;;;4977087;28;20211;-61
2020/12/16 06:23:23;;;;;;;42.90;22.53;;;10.80;1.00;;;;;;4976814;28;20203;-61
2020/12/16 06:25:54;;;;;;;38.80;19.70;;;10.60;1.00;;;;;;4976999;28;20423;-62
2020/12/16 06:28:20;;;;;;;42.53;20.55;;;10.50;1.00;;;;;;4977120;28;20180;-61
2020/12/16 06:31:12;;;;;;;38.65;21.45;;;10.30;1.00;;;;;;4976933;28;20188;-60
2020/12/16 06:33:50;;;;;;;38.45;21.20;;;10.20;1.00;;;;;;4976526;28;20176;-60
2020/12/16 06:36:17;;;;;;;38.00;21.52;;;10.10;1.00;;;;;;4976771;28;20606;-60
2020/12/16 06:38:44;;;;;;;43.15;20.55;;;10.00;25.30;;;;;;4976644;28;20180;-60
2020/12/16 06:41:15;;;;;;;44.15;22.95;;;10.00;56.60;;;;;;4976523;28;20208;-60
2020/12/16 06:43:44;;;;;;;44.63;23.55;;;10.10;95.40;;;;;;4976384;28;20326;-60
2020/12/16 06:46:30;;;;;;;41.25;21.73;;;10.10;99.90;;;;;;4976565;28;20267;-60
2020/12/16 06:48:55;;;;;;;38.47;18.98;;;10.10;99.90;;;;;;4976482;28;20244;-60
2020/12/16 06:51:23;;;;;;;38.10;19.87;;;10.10;99.90;;;;;;4976627;28;20187;-60
2020/12/16 06:54:02;;;;;;;36.33;20.30;;;10.00;99.90;;;;;;4976183;28;20961;-60
2020/12/16 06:56:28;;;;;;;38.17;18.83;;;10.20;99.90;;;;;;4976338;28;20176;-60
2020/12/16 06:58:54;;;;;;;38.80;20.80;;;10.40;91.90;;;;;;4976515;28;20537;-60
2020/12/16 07:01:19;;;;;;;40.87;19.87;;;10.50;52.00;;;;;;4976374;28;20223;-60
2020/12/16 07:03:45;;;;;;;35.77;18.60;;;10.30;1.00;;;;;;4976063;28;20286;-60
2020/12/16 07:06:32;;;;;;;39.77;20.30;;;10.10;1.00;;;;;;4976361;28;20175;-60
2020/12/16 07:09:16;;;;;;;34.00;18.73;;;10.30;19.00;;;;;;4962530;28;20199;-60
2020/12/16 07:11:46;;;;;;;39.97;19.90;;;10.30;1.00;;;;;;4975330;28;20789;-65
2020/12/16 07:14:14;;;;;;;32.70;17.52;;;10.30;1.00;;;;;;4975897;28;20184;-65
2020/12/16 07:16:40;;;;;;;34.13;19.65;;;10.40;1.00;;;;;;4975101;28;20184;-65
2020/12/16 07:19:06;;;;;;;41.38;20.42;;;10.30;1.00;;;;;;4976047;28;20259;-65
2020/12/16 07:21:32;;;;;;;39.00;19.50;;;10.60;1.00;;;;;;4975925;28;20208;-65
2020/12/16 07:24:10;;;;;;;30.05;18.40;;;10.50;1.00;;;;;;4975909;28;20184;-65
2020/12/16 07:26:46;;;;;;;35.70;17.65;;;10.50;1.00;;;;;;4975871;28;20187;-65
2020/12/16 07:29:21;;;;;;;35.65;18.10;;;10.50;1.00;;;;;;4974957;28;20180;-64
2020/12/16 07:31:56;;;;;;;36.67;18.65;;;10.60;1.00;;;;;;4973953;28;20179;-65
2020/12/16 07:34:23;;;;;;;31.17;16.20;;;10.80;1.00;;;;;;4972724;28;20188;-65
2020/12/16 07:37:16;;;;;;;30.75;15.80;;;10.60;1.00;;;;;;4974471;28;20669;-63
2020/12/16 07:39:59;;;;;;;33.85;17.65;;;10.20;1.00;;;;;;4971514;28;20207;-63
2020/12/16 07:42:32;;;;;;;29.33;15.85;;;10.20;1.00;;;;;;4974311;28;20219;-63
2020/12/16 07:45:00;;;;;;;29.90;16.50;;;10.20;1.00;;;;;;4973881;28;20685;-63
2020/12/16 07:47:26;;;;;;;28.65;15.57;;;10.00;1.00;;;;;;4975137;28;20487;-64
2020/12/16 07:49:53;;;;;;;28.73;14.15;;;9.80;1.00;;;;;;4974513;28;20176;-63
2020/12/16 07:52:27;;;;;;;56.60;30.83;;;9.70;1.00;;;;;;4975586;28;20238;-63
2020/12/16 07:54:53;;;;;;;28.98;15.75;;;9.60;1.00;;;;;;4973922;28;20191;-59
2020/12/16 07:57:30;;;;;;;30.83;17.50;;;9.60;1.00;;;;;;4981691;28;20194;-60
2020/12/16 07:59:55;;;;;;;33.33;18.15;;;9.70;1.00;;;;;;4986502;28;20199;-64
2020/12/16 08:02:21;;;;;;;34.23;18.73;;;9.70;1.00;;;;;;4974281;28;20212;-65
2020/12/16 08:04:56;;;;;;;31.40;17.07;;;9.70;1.00;;;;;;4987851;28;20439;-65
2020/12/16 08:07:21;;;;;;;33.50;17.15;;;9.40;1.00;;;;;;4994993;28;20639;-59
2020/12/16 08:09:57;;;;;;;32.37;17.43;;;9.40;1.00;;;;;;4994435;28;20210;-59
2020/12/16 08:12:25;;;;;;;32.75;17.90;;;9.30;1.00;;;;;;4989019;28;20180;-59
2020/12/16 08:15:02;;;;;;;29.42;18.73;;;9.30;13.90;;;;;;4974816;28;20190;-59
2020/12/16 08:17:28;;;;;;;46.58;24.02;;;9.30;34.80;;;;;;4975102;28;20270;-59
2020/12/16 08:20:16;;;;;;;35.23;19.33;;;9.10;58.10;;;;;;4975176;28;20629;-59
2020/12/16 08:22:44;;;;;;;38.17;20.33;;;9.00;91.60;;;;;;4974806;28;21019;-59
2020/12/16 08:25:10;;;;;;;33.75;17.70;;;9.10;99.90;;;;;;4975117;28;20188;-59
2020/12/16 08:27:47;;;;;;;40.05;19.10;;;9.10;99.90;;;;;;4974851;28;20218;-59
2020/12/16 08:30:16;;;;;;;30.98;17.30;;;9.00;99.90;;;;;;4986442;28;20183;-59
2020/12/16 08:33:04;;;;;;;30.20;16.00;;;8.80;99.90;;;;;;4994268;28;20186;-59
2020/12/16 08:35:37;;;;;;;32.95;17.10;;;8.80;99.90;;;;;;4994108;28;20179;-59
2020/12/16 08:38:09;;;;;;;35.22;16.27;;;8.60;99.90;;;;;;4993851;28;20187;-59
2020/12/16 08:40:39;;;;;;;31.23;16.30;;;8.60;99.90;;;;;;4994138;28;20317;-59
2020/12/16 08:43:24;;;;;;;48.10;21.98;;;8.60;99.90;;;;;;4993887;28;20655;-59
2020/12/16 08:45:59;;;;;;;46.78;23.73;;;8.60;99.90;;;;;;4994060;28;20254;-59
2020/12/16 08:48:24;;;;;;;31.45;16.67;;;8.70;99.90;;;;;;4993910;28;20186;-59
2020/12/16 08:51:00;;;;;;;33.70;17.73;;;8.60;99.90;;;;;;4993939;28;20596;-59
2020/12/16 08:53:26;;;;;;;34.38;18.25;;;8.40;99.90;;;;;;4983294;28;20281;-58
2020/12/16 08:55:51;;;;;;;36.03;16.47;;;8.50;99.90;;;;;;4978840;28;20211;-59
2020/12/16 08:58:17;;;;;;;33.40;16.40;;;8.60;99.90;;;;;;4983319;28;20532;-59
2020/12/16 09:00:43;;;;;;;35.17;15.67;;;8.70;99.90;;;;;;4984288;28;20270;-59
2020/12/16 09:03:12;;;;;;;36.80;18.13;;;8.70;99.90;;;;;;4986324;28;20190;-59
2020/12/16 09:05:39;;;;;;;41.13;17.90;;;8.80;99.90;;;;;;4955629;28;20236;-59
2020/12/16 09:08:10;;;;;;;32.47;16.05;;;8.90;99.90;;;;;;4960411;28;20270;-59
2020/12/16 09:10:37;;;;;;;37.40;18.77;;;8.70;99.90;;;;;;4979830;28;20584;-60
2020/12/16 09:13:14;;;;;;;39.95;21.83;;;8.70;99.90;;;;;;4994525;28;20554;-60
2020/12/16 09:15:43;;;;;;;49.17;22.35;;;8.50;99.90;;;;;;4993521;28;20193;-60
2020/12/16 09:18:09;;;;;;;42.72;19.42;;;8.70;99.90;;;;;;4976479;28;20187;-60
2020/12/16 09:20:35;;;;;;;42.53;20.80;;;8.80;99.90;;;;;;4975602;28;20275;-60
2020/12/16 09:23:00;;;;;;;38.87;20.00;;;8.70;99.90;;;;;;4977973;28;20263;-60
2020/12/16 09:25:26;;;;;;;46.10;20.80;;;8.80;99.90;;;;;;4977714;28;20600;-60
2020/12/16 09:27:56;;;;;;;53.33;24.40;;;9.10;99.90;;;;;;4984470;28;20200;-60
2020/12/16 09:30:34;;;;;;;60.28;29.95;;;9.00;79.60;;;;;;4997592;28;20214;-62
2020/12/16 09:33:15;;;;;;;39.45;20.27;;;9.10;62.50;;;;;;4996247;28;20183;-62
2020/12/16 09:35:42;;;;;;;42.72;21.45;;;9.30;35.60;;;;;;4958911;29;20255;-64
2020/12/16 09:38:18;;;;;;;40.80;19.80;;;9.30;1.00;;;;;;4958439;29;20188;-59
2020/12/16 09:40:45;;;;;;;44.20;22.38;;;9.30;1.00;;;;;;4958392;28;20204;-62
2020/12/16 09:43:11;;;;;;;40.35;19.25;;;9.30;1.00;;;;;;4970911;28;20192;-62
2020/12/16 09:45:38;;;;;;;36.40;16.97;;;9.30;1.00;;;;;;4976792;28;20184;-63
2020/12/16 09:48:04;;;;;;;32.63;15.70;;;9.20;1.00;;;;;;4977683;28;20676;-64
2020/12/16 09:50:33;;;;;;;33.13;15.73;;;9.30;1.00;;;;;;4977629;28;20184;-59
2020/12/16 09:52:59;;;;;;;33.45;14.40;;;9.20;1.00;;;;;;4976512;28;20326;-64
2020/12/16 09:55:25;;;;;;;27.52;14.13;;;9.20;1.00;;;;;;4975969;28;20605;-62
2020/12/16 09:58:08;;;;;;;29.20;14.23;;;9.20;1.00;;;;;;4977069;28;20180;-61
2020/12/16 10:00:36;;;;;;;30.23;13.02;;;9.20;1.00;;;;;;4977369;28;20192;-61
2020/12/16 10:03:03;;;;;;;28.85;14.25;;;9.30;1.00;;;;;;4988175;28;20218;-61
2020/12/16 10:05:31;;;;;;;29.73;14.20;;;9.10;1.00;;;;;;4971910;28;20420;-63
2020/12/16 10:07:57;;;;;;;31.58;15.23;;;9.40;1.00;;;;;;4977116;28;20176;-63
2020/12/16 10:10:22;;;;;;;30.23;14.83;;;9.00;1.00;;;;;;4977217;28;20190;-61
2020/12/16 10:12:49;;;;;;;28.57;13.63;;;9.20;1.00;;;;;;4977190;28;20204;-65
2020/12/16 10:15:15;;;;;;;31.13;15.73;;;9.20;1.00;;;;;;4976748;28;20211;-64
2020/12/16 10:17:41;;;;;;;29.50;13.90;;;9.10;1.00;;;;;;4977324;28;20213;-66
2020/12/16 10:20:06;;;;;;;27.60;13.50;;;9.30;1.00;;;;;;4977558;28;20267;-65
2020/12/16 10:22:32;;;;;;;28.20;14.60;;;9.10;1.00;;;;;;4976021;28;20298;-65
2020/12/16 10:24:59;;;;;;;29.00;14.43;;;9.10;1.00;;;;;;4977097;28;20234;-66
2020/12/16 10:27:28;;;;;;;26.70;14.20;;;9.10;1.00;;;;;;4976626;28;20454;-66
2020/12/16 10:29:57;;;;;;;25.58;14.40;;;9.10;1.00;;;;;;4977913;28;20184;-66
2020/12/16 10:32:23;;;;;;;25.70;13.60;;;8.90;1.00;;;;;;4975195;28;20180;-65
2020/12/16 10:34:51;;;;;;;26.23;15.25;;;8.90;1.00;;;;;;4977152;28;20184;-67
2020/12/16 10:37:17;;;;;;;27.80;14.32;;;9.20;1.00;;;;;;4976918;28;20239;-65
2020/12/16 10:39:42;;;;;;;30.77;14.70;;;9.30;1.00;;;;;;4977040;28;20188;-65
2020/12/16 10:42:08;;;;;;;30.33;15.07;;;9.30;1.00;;;;;;4976575;28;20532;-65
2020/12/16 10:44:34;;;;;;;33.27;15.80;;;9.10;1.00;;;;;;4976815;28;20278;-60
2020/12/16 10:46:59;;;;;;;33.87;14.70;;;8.80;1.00;;;;;;4976938;28;20192;-63
2020/12/16 10:49:27;;;;;;;31.67;13.93;;;8.90;1.00;;;;;;4976752;28;20193;-63
2020/12/16 10:51:53;;;;;;;32.30;13.80;;;9.00;1.00;;;;;;4976753;28;20180;-63
2020/12/16 10:54:35;;;;;;;34.42;14.95;;;8.90;1.00;;;;;;4976394;28;20516;-63
2020/12/16 10:59:54;;;;;;;28.98;14.75;;;8.80;1.00;;;;;;4969008;28;20214;-63
2020/12/16 11:02:19;;;;;;;28.17;13.60;;;8.70;10.50;;;;;;4985496;28;20207;-63
2020/12/16 11:04:45;;;;;;;31.83;15.40;;;8.80;36.20;;;;;;4980622;28;20180;-63
2020/12/16 11:07:11;;;;;;;38.93;15.10;;;8.90;44.60;;;;;;4976245;28;20222;-63
2020/12/16 11:09:36;;;;;;;31.53;16.03;;;9.00;52.80;;;;;;4975825;28;20196;-63
2020/12/16 11:12:02;;;;;;;42.00;16.30;;;9.00;57.10;;;;;;4975491;28;20243;-63
2020/12/16 11:14:27;;;;;;;32.60;15.17;;;9.30;62.30;;;;;;4968781;28;20195;-62
2020/12/16 11:16:54;;;;;;;34.70;15.80;;;9.40;45.70;;;;;;4971883;28;20227;-62
2020/12/16 11:19:19;;;;;;;34.33;13.93;;;9.50;14.10;;;;;;4972079;28;20238;-65
2020/12/16 11:21:51;;;;;;;35.77;16.37;;;9.50;1.00;;;;;;4972524;28;20243;-65
2020/12/16 11:24:19;;;;;;;35.65;17.27;;;9.40;1.00;;;;;;4973541;28;20259;-64
2020/12/16 11:26:47;;;;;;;39.45;17.10;;;9.20;1.00;;;;;;4974927;28;20184;-61
2020/12/16 11:29:14;;;;;;;37.30;16.50;;;9.20;1.00;;;;;;4973294;28;20489;-60
2020/12/16 11:31:45;;;;;;;40.83;15.65;;;9.20;9.00;;;;;;4975411;28;20184;-65
2020/12/16 11:34:11;;;;;;;46.50;17.33;;;9.40;35.50;;;;;;4974580;28;20270;-65
2020/12/16 11:36:41;;;;;;;43.58;17.35;;;9.40;21.80;;;;;;4974308;28;20184;-65
2020/12/16 11:39:08;;;;;;;36.22;16.02;;;9.30;20.40;;;;;;4975088;28;20188;-65
2020/12/16 11:41:35;;;;;;;43.05;18.63;;;9.30;29.40;;;;;;4975246;28;20247;-66
2020/12/16 11:44:01;;;;;;;39.55;17.42;;;9.40;46.40;;;;;;4974429;28;20180;-65
2020/12/16 11:46:30;;;;;;;47.83;20.63;;;9.50;42.10;;;;;;4968820;28;20523;-65
2020/12/16 11:49:00;;;;;;;38.25;17.42;;;9.50;23.30;;;;;;4974255;28;20745;-65
2020/12/16 11:51:27;;;;;;;39.40;17.42;;;9.40;24.30;;;;;;4975445;28;20243;-65
2020/12/16 11:53:53;;;;;;;36.53;17.67;;;9.50;28.20;;;;;;4975035;28;20188;-65
2020/12/16 11:56:19;;;;;;;38.53;17.85;;;9.60;9.00;;;;;;4975475;28;20609;-66
2020/12/16 11:58:45;;;;;;;39.60;16.83;;;9.60;4.80;;;;;;4975037;28;20342;-67
2020/12/16 12:01:12;;;;;;;38.20;15.55;;;9.60;1.00;;;;;;4975087;28;20261;-66
2020/12/16 12:03:38;;;;;;;43.60;20.98;;;9.40;5.70;;;;;;4975239;28;20180;-66
2020/12/16 12:06:07;;;;;;;46.22;22.70;;;9.50;26.50;;;;;;4975482;28;20258;-66
2020/12/16 12:08:33;;;;;;;39.83;19.33;;;9.50;20.90;;;;;;4974498;28;20283;-65
2020/12/16 12:10:58;;;;;;;32.27;15.93;;;9.40;13.40;;;;;;4974082;28;20208;-62
2020/12/16 12:13:24;;;;;;;32.27;15.80;;;9.40;42.20;;;;;;4973790;28;20212;-61
2020/12/16 12:15:49;;;;;;;37.73;20.23;;;9.50;51.70;;;;;;4977530;28;20561;-64
2020/12/16 12:18:15;;;;;;;34.37;17.17;;;9.50;36.50;;;;;;4974922;28;20518;-63
2020/12/16 12:20:40;;;;;;;39.27;18.67;;;9.60;44.10;;;;;;4974546;28;20192;-63
2020/12/16 12:23:06;;;;;;;37.63;19.50;;;9.70;39.00;;;;;;4973800;28;20550;-64
2020/12/16 12:25:31;;;;;;;37.50;19.33;;;9.70;40.60;;;;;;4972779;28;20464;-65
2020/12/16 12:27:57;;;;;;;41.13;18.93;;;9.90;47.10;;;;;;4974596;28;20675;-65
2020/12/16 12:30:22;;;;;;;39.47;17.93;;;9.90;17.60;;;;;;4973215;28;20218;-65
2020/12/16 12:32:48;;;;;;;38.80;17.47;;;10.00;1.00;;;;;;4975450;28;20179;-69
2020/12/16 12:35:13;;;;;;;39.63;18.90;;;10.10;1.00;;;;;;4974277;28;20188;-65
2020/12/16 12:37:39;;;;;;;37.00;18.10;;;10.30;1.00;;;;;;4976495;28;20176;-63
2020/12/16 12:40:04;;;;;;;34.53;18.47;;;10.20;1.00;;;;;;4985706;28;20179;-63
2020/12/16 12:42:30;;;;;;;40.40;18.30;;;10.10;1.00;;;;;;4983137;28;20220;-63
2020/12/16 12:44:55;;;;;;;36.97;18.63;;;10.20;1.00;;;;;;4992271;28;20380;-68